sensor_id;sensor_type;location;lat;lon;timestamp;temperature;humidity
23803;DHT22;12082;51.786;6.018;2023-02-18T00:01:54;10.40;99.90
23803;DHT22;12082;51.786;6.018;2023-02-18T00:04:19;10.40;99.90
23803;DHT22;12082;51.786;6.018;2023-02-18T00:06:45;10.50;99.90
23803;DHT22;12082;51.786;6.018;2023-02-18T00:09:11;10.50;99.90
23803;DHT22;12082;51.786;6.018;2023-02-18T00:11:37;10.50;99.90
23803;DHT22;12082;51.786;6.018;2023-02-18T00:14:06;10.50;99.90
23803;DHT22;12082;51.786;6.018;2023-02-18T00:16:31;10.50;99.90
23803;DHT22;12082;51.786;6.018;2023-02-18T00:19:02;10.50;99.90
23803;DHT22;12082;51.786;6.018;2023-02-18T00:21:29;10.50;99.90
23803;DHT22;12082;51.786;6.018;2023-02-18T00:23:55;10.50;99.90
23803;DHT22;12082;51.786;6.018;2023-02-18T00:26:21;10.50;99.90
23803;DHT22;12082;51.786;6.018;2023-02-18T00:28:47;10.50;99.90
23803;DHT22;12082;51.786;6.018;2023-02-18T00:31:18;10.50;99.90
23803;DHT22;12082;51.786;6.018;2023-02-18T00:33:44;10.60;99.90
23803;DHT22;12082;51.786;6.018;2023-02-18T00:36:13;10.60;99.90
23803;DHT22;12082;51.786;6.018;2023-02-18T00:38:38;10.60;99.90
23803;DHT22;12082;51.786;6.018;2023-02-18T00:41:07;10.60;99.90
23803;DHT22;12082;51.786;6.018;2023-02-18T00:43:33;10.60;99.90
23803;DHT22;12082;51.786;6.018;2023-02-18T00:45:58;10.40;99.90
23803;DHT22;12082;51.786;6.018;2023-02-18T00:48:24;10.60;99.90
23803;DHT22;12082;51.786;6.018;2023-02-18T00:50:50;10.60;99.90
23803;DHT22;12082;51.786;6.018;2023-02-18T00:53:15;10.60;99.90
23803;DHT22;12082;51.786;6.018;2023-02-18T00:55:44;10.60;99.90
23803;DHT22;12082;51.786;6.018;2023-02-18T00:58:13;10.40;99.90
23803;DHT22;12082;51.786;6.018;2023-02-18T01:00:38;10.60;99.90
23803;DHT22;12082;51.786;6.018;2023-02-18T01:03:05;10.70;99.90
23803;DHT22;12082;51.786;6.018;2023-02-18T01:05:36;10.60;99.90
23803;DHT22;12082;51.786;6.018;2023-02-18T01:08:02;10.50;99.90
23803;DHT22;12082;51.786;6.018;2023-02-18T01:10:28;10.70;99.90
23803;DHT22;12082;51.786;6.018;2023-02-18T01:12:53;10.70;99.90
23803;DHT22;12082;51.786;6.018;2023-02-18T01:15:19;10.70;99.90
23803;DHT22;12082;51.786;6.018;2023-02-18T01:17:45;10.40;99.90
23803;DHT22;12082;51.786;6.018;2023-02-18T01:20:12;10.70;99.90
23803;DHT22;12082;51.786;6.018;2023-02-18T01:22:38;10.70;99.90
23803;DHT22;12082;51.786;6.018;2023-02-18T01:25:04;10.80;99.90
23803;DHT22;12082;51.786;6.018;2023-02-18T01:27:30;10.70;99.90
23803;DHT22;12082;51.786;6.018;2023-02-18T01:29:56;10.90;99.90
23803;DHT22;12082;51.786;6.018;2023-02-18T01:32:22;10.80;99.90
23803;DHT22;12082;51.786;6.018;2023-02-18T01:34:47;10.80;99.90
23803;DHT22;12082;51.786;6.018;2023-02-18T01:37:13;10.70;99.90
23803;DHT22;12082;51.786;6.018;2023-02-18T01:39:38;10.70;99.90
23803;DHT22;12082;51.786;6.018;2023-02-18T01:42:05;10.70;99.90
23803;DHT22;12082;51.786;6.018;2023-02-18T01:44:33;10.60;99.90
23803;DHT22;12082;51.786;6.018;2023-02-18T01:46:59;10.40;99.90
23803;DHT22;12082;51.786;6.018;2023-02-18T01:49:30;10.70;99.90
23803;DHT22;12082;51.786;6.018;2023-02-18T01:52:01;10.70;99.90
23803;DHT22;12082;51.786;6.018;2023-02-18T01:54:33;10.70;99.90
23803;DHT22;12082;51.786;6.018;2023-02-18T01:57:06;10.70;99.90
23803;DHT22;12082;51.786;6.018;2023-02-18T01:59:37;10.60;99.90
23803;DHT22;12082;51.786;6.018;2023-02-18T02:02:05;10.60;99.90
23803;DHT22;12082;51.786;6.018;2023-02-18T02:04:32;10.70;99.90
23803;DHT22;12082;51.786;6.018;2023-02-18T02:06:57;10.70;99.90
23803;DHT22;12082;51.786;6.018;2023-02-18T02:09:25;10.30;99.90
23803;DHT22;12082;51.786;6.018;2023-02-18T02:12:19;10.70;99.90
23803;DHT22;12082;51.786;6.018;2023-02-18T02:23:12;10.70;99.90
23803;DHT22;12082;51.786;6.018;2023-02-18T02:37:09;10.60;99.90
23803;DHT22;12082;51.786;6.018;2023-02-18T02:40:03;10.60;99.90
23803;DHT22;12082;51.786;6.018;2023-02-18T02:42:49;10.50;99.90
23803;DHT22;12082;51.786;6.018;2023-02-18T02:48:10;10.50;99.90
23803;DHT22;12082;51.786;6.018;2023-02-18T02:53:25;10.40;99.90
23803;DHT22;12082;51.786;6.018;2023-02-18T02:55:51;10.40;99.90
23803;DHT22;12082;51.786;6.018;2023-02-18T02:58:18;10.50;99.90
23803;DHT22;12082;51.786;6.018;2023-02-18T03:01:03;10.40;99.90
23803;DHT22;12082;51.786;6.018;2023-02-18T03:03:42;10.40;99.90
23803;DHT22;12082;51.786;6.018;2023-02-18T03:09:17;10.40;99.90
23803;DHT22;12082;51.786;6.018;2023-02-18T03:20:25;10.40;99.90
23803;DHT22;12082;51.786;6.018;2023-02-18T03:22:46;10.40;99.90
23803;DHT22;12082;51.786;6.018;2023-02-18T03:25:13;10.40;99.90
23803;DHT22;12082;51.786;6.018;2023-02-18T03:27:44;10.40;99.90
23803;DHT22;12082;51.786;6.018;2023-02-18T03:30:20;10.40;99.90
23803;DHT22;12082;51.786;6.018;2023-02-18T03:32:49;10.40;99.90
23803;DHT22;12082;51.786;6.018;2023-02-18T03:35:17;10.40;99.90
23803;DHT22;12082;51.786;6.018;2023-02-18T03:40:35;10.30;99.90
23803;DHT22;12082;51.786;6.018;2023-02-18T03:43:00;10.40;99.90
23803;DHT22;12082;51.786;6.018;2023-02-18T03:45:26;10.40;99.90
23803;DHT22;12082;51.786;6.018;2023-02-18T03:47:53;10.40;99.90
23803;DHT22;12082;51.786;6.018;2023-02-18T03:50:18;10.40;99.90
23803;DHT22;12082;51.786;6.018;2023-02-18T03:52:45;10.30;99.90
23803;DHT22;12082;51.786;6.018;2023-02-18T03:55:10;10.30;99.90
23803;DHT22;12082;51.786;6.018;2023-02-18T03:57:36;10.20;99.90
23803;DHT22;12082;51.786;6.018;2023-02-18T04:00:04;10.30;99.90
23803;DHT22;12082;51.786;6.018;2023-02-18T04:02:31;10.30;99.90
23803;DHT22;12082;51.786;6.018;2023-02-18T04:04:56;10.40;99.90
23803;DHT22;12082;51.786;6.018;2023-02-18T04:07:22;10.70;99.90
23803;DHT22;12082;51.786;6.018;2023-02-18T04:09:47;10.30;99.90
23803;DHT22;12082;51.786;6.018;2023-02-18T04:12:13;10.00;99.90
23803;DHT22;12082;51.786;6.018;2023-02-18T04:14:39;10.30;99.90
23803;DHT22;12082;51.786;6.018;2023-02-18T04:17:04;10.20;99.90
23803;DHT22;12082;51.786;6.018;2023-02-18T04:19:30;10.40;99.90
23803;DHT22;12082;51.786;6.018;2023-02-18T04:21:55;10.30;99.90
23803;DHT22;12082;51.786;6.018;2023-02-18T04:24:21;12.10;99.90
23803;DHT22;12082;51.786;6.018;2023-02-18T04:29:12;10.20;99.90
23803;DHT22;12082;51.786;6.018;2023-02-18T05:30:14;10.40;99.90
23803;DHT22;12082;51.786;6.018;2023-02-18T05:32:42;10.30;99.90
23803;DHT22;12082;51.786;6.018;2023-02-18T05:35:10;10.30;99.90
23803;DHT22;12082;51.786;6.018;2023-02-18T05:40:03;10.30;99.90
23803;DHT22;12082;51.786;6.018;2023-02-18T05:42:29;10.30;99.90
23803;DHT22;12082;51.786;6.018;2023-02-18T05:44:54;10.20;99.90
23803;DHT22;12082;51.786;6.018;2023-02-18T05:47:20;10.40;99.90
23803;DHT22;12082;51.786;6.018;2023-02-18T05:49:46;10.50;99.90
23803;DHT22;12082;51.786;6.018;2023-02-18T05:52:11;10.30;99.90
23803;DHT22;12082;51.786;6.018;2023-02-18T05:54:37;10.30;99.90
23803;DHT22;12082;51.786;6.018;2023-02-18T05:57:03;10.90;99.90
23803;DHT22;12082;51.786;6.018;2023-02-18T05:59:28;10.60;99.90
23803;DHT22;12082;51.786;6.018;2023-02-18T06:01:54;10.10;99.90
23803;DHT22;12082;51.786;6.018;2023-02-18T06:04:20;10.40;99.90
23803;DHT22;12082;51.786;6.018;2023-02-18T06:06:46;10.30;99.90
23803;DHT22;12082;51.786;6.018;2023-02-18T06:09:12;10.20;99.90
23803;DHT22;12082;51.786;6.018;2023-02-18T06:11:37;10.20;99.90
23803;DHT22;12082;51.786;6.018;2023-02-18T06:14:03;10.30;99.90
23803;DHT22;12082;51.786;6.018;2023-02-18T06:16:29;10.30;99.90
23803;DHT22;12082;51.786;6.018;2023-02-18T06:18:54;10.20;99.90
23803;DHT22;12082;51.786;6.018;2023-02-18T06:21:20;10.20;99.90
23803;DHT22;12082;51.786;6.018;2023-02-18T06:23:46;10.20;99.90
23803;DHT22;12082;51.786;6.018;2023-02-18T06:26:12;10.20;99.90
23803;DHT22;12082;51.786;6.018;2023-02-18T06:28:37;10.10;99.90
23803;DHT22;12082;51.786;6.018;2023-02-18T06:31:03;10.10;99.90
23803;DHT22;12082;51.786;6.018;2023-02-18T06:33:29;10.10;99.90
23803;DHT22;12082;51.786;6.018;2023-02-18T06:36:03;10.10;99.90
23803;DHT22;12082;51.786;6.018;2023-02-18T06:38:32;10.10;99.90
23803;DHT22;12082;51.786;6.018;2023-02-18T06:40:58;10.10;99.90
23803;DHT22;12082;51.786;6.018;2023-02-18T06:43:23;10.10;99.90
23803;DHT22;12082;51.786;6.018;2023-02-18T06:45:49;10.80;99.90
23803;DHT22;12082;51.786;6.018;2023-02-18T06:48:15;10.10;99.90
23803;DHT22;12082;51.786;6.018;2023-02-18T06:50:41;10.10;99.90
23803;DHT22;12082;51.786;6.018;2023-02-18T06:53:07;10.10;99.90
23803;DHT22;12082;51.786;6.018;2023-02-18T06:55:32;10.00;99.90
23803;DHT22;12082;51.786;6.018;2023-02-18T06:57:58;10.10;99.90
23803;DHT22;12082;51.786;6.018;2023-02-18T07:00:24;11.20;99.90
23803;DHT22;12082;51.786;6.018;2023-02-18T07:02:50;10.00;99.90
23803;DHT22;12082;51.786;6.018;2023-02-18T07:05:15;10.00;99.90
23803;DHT22;12082;51.786;6.018;2023-02-18T07:07:41;10.10;99.90
23803;DHT22;12082;51.786;6.018;2023-02-18T07:10:07;10.10;99.90
23803;DHT22;12082;51.786;6.018;2023-02-18T07:12:33;10.00;99.90
23803;DHT22;12082;51.786;6.018;2023-02-18T07:14:58;9.80;99.90
23803;DHT22;12082;51.786;6.018;2023-02-18T07:17:24;10.10;99.90
23803;DHT22;12082;51.786;6.018;2023-02-18T07:19:50;10.00;99.90
23803;DHT22;12082;51.786;6.018;2023-02-18T07:22:16;10.00;99.90
23803;DHT22;12082;51.786;6.018;2023-02-18T07:24:41;10.00;99.90
23803;DHT22;12082;51.786;6.018;2023-02-18T07:27:07;10.00;99.90
23803;DHT22;12082;51.786;6.018;2023-02-18T07:29:33;9.70;99.90
23803;DHT22;12082;51.786;6.018;2023-02-18T07:31:58;10.00;99.90
23803;DHT22;12082;51.786;6.018;2023-02-18T07:34:24;10.30;99.90
23803;DHT22;12082;51.786;6.018;2023-02-18T07:36:49;10.00;99.90
23803;DHT22;12082;51.786;6.018;2023-02-18T07:39:15;10.00;99.90
23803;DHT22;12082;51.786;6.018;2023-02-18T07:41:47;10.00;99.90
23803;DHT22;12082;51.786;6.018;2023-02-18T07:44:13;8.90;99.90
23803;DHT22;12082;51.786;6.018;2023-02-18T07:46:42;9.90;99.90
23803;DHT22;12082;51.786;6.018;2023-02-18T07:49:09;9.90;99.90
23803;DHT22;12082;51.786;6.018;2023-02-18T07:51:34;9.90;99.90
23803;DHT22;12082;51.786;6.018;2023-02-18T07:54:02;9.90;99.90
23803;DHT22;12082;51.786;6.018;2023-02-18T07:56:27;9.90;99.90
23803;DHT22;12082;51.786;6.018;2023-02-18T07:58:53;9.90;99.90
23803;DHT22;12082;51.786;6.018;2023-02-18T08:01:18;9.90;99.90
23803;DHT22;12082;51.786;6.018;2023-02-18T08:03:44;9.80;99.90
23803;DHT22;12082;51.786;6.018;2023-02-18T08:06:25;9.80;99.90
23803;DHT22;12082;51.786;6.018;2023-02-18T08:08:51;9.80;99.90
23803;DHT22;12082;51.786;6.018;2023-02-18T08:11:16;9.80;99.90
23803;DHT22;12082;51.786;6.018;2023-02-18T08:13:42;9.80;99.90
23803;DHT22;12082;51.786;6.018;2023-02-18T08:16:08;9.80;99.90
23803;DHT22;12082;51.786;6.018;2023-02-18T08:18:34;9.70;99.90
23803;DHT22;12082;51.786;6.018;2023-02-18T08:21:00;9.70;99.90
23803;DHT22;12082;51.786;6.018;2023-02-18T08:23:25;9.70;99.90
23803;DHT22;12082;51.786;6.018;2023-02-18T08:25:52;9.70;99.90
23803;DHT22;12082;51.786;6.018;2023-02-18T08:28:19;9.60;99.90
23803;DHT22;12082;51.786;6.018;2023-02-18T08:30:47;9.60;99.90
23803;DHT22;12082;51.786;6.018;2023-02-18T08:33:13;9.60;99.90
23803;DHT22;12082;51.786;6.018;2023-02-18T08:35:39;9.60;99.90
23803;DHT22;12082;51.786;6.018;2023-02-18T08:38:04;9.60;99.90
23803;DHT22;12082;51.786;6.018;2023-02-18T08:40:30;9.60;99.90
23803;DHT22;12082;51.786;6.018;2023-02-18T08:42:55;9.60;99.90
23803;DHT22;12082;51.786;6.018;2023-02-18T08:45:21;9.60;99.90
23803;DHT22;12082;51.786;6.018;2023-02-18T08:47:46;9.60;99.90
23803;DHT22;12082;51.786;6.018;2023-02-18T08:50:12;9.60;99.90
23803;DHT22;12082;51.786;6.018;2023-02-18T08:52:38;9.60;99.90
23803;DHT22;12082;51.786;6.018;2023-02-18T08:55:04;9.60;99.90
23803;DHT22;12082;51.786;6.018;2023-02-18T08:57:30;9.60;99.90
23803;DHT22;12082;51.786;6.018;2023-02-18T08:59:55;9.70;99.90
23803;DHT22;12082;51.786;6.018;2023-02-18T09:02:21;9.60;99.90
23803;DHT22;12082;51.786;6.018;2023-02-18T09:04:47;9.70;99.90
23803;DHT22;12082;51.786;6.018;2023-02-18T09:07:12;9.60;99.90
23803;DHT22;12082;51.786;6.018;2023-02-18T09:09:38;9.60;99.90
23803;DHT22;12082;51.786;6.018;2023-02-18T09:12:04;9.60;99.90
23803;DHT22;12082;51.786;6.018;2023-02-18T09:14:29;9.70;99.90
23803;DHT22;12082;51.786;6.018;2023-02-18T09:16:56;9.70;99.90
23803;DHT22;12082;51.786;6.018;2023-02-18T09:19:22;9.70;99.90
23803;DHT22;12082;51.786;6.018;2023-02-18T09:21:48;9.70;99.90
23803;DHT22;12082;51.786;6.018;2023-02-18T09:24:14;9.70;99.90
23803;DHT22;12082;51.786;6.018;2023-02-18T09:26:40;9.60;99.90
23803;DHT22;12082;51.786;6.018;2023-02-18T09:29:05;9.60;99.90
23803;DHT22;12082;51.786;6.018;2023-02-18T09:31:31;9.60;99.90
23803;DHT22;12082;51.786;6.018;2023-02-18T09:34:01;9.60;99.90
23803;DHT22;12082;51.786;6.018;2023-02-18T09:36:27;9.50;99.90
23803;DHT22;12082;51.786;6.018;2023-02-18T09:38:53;9.50;99.90
23803;DHT22;12082;51.786;6.018;2023-02-18T09:44:02;9.50;99.90
23803;DHT22;12082;51.786;6.018;2023-02-18T09:46:35;9.40;99.90
23803;DHT22;12082;51.786;6.018;2023-02-18T09:49:05;9.40;99.90
23803;DHT22;12082;51.786;6.018;2023-02-18T09:51:31;9.40;99.90
23803;DHT22;12082;51.786;6.018;2023-02-18T09:53:57;9.40;99.90
23803;DHT22;12082;51.786;6.018;2023-02-18T09:56:29;9.40;99.90
23803;DHT22;12082;51.786;6.018;2023-02-18T09:58:57;9.30;99.90
23803;DHT22;12082;51.786;6.018;2023-02-18T10:01:33;9.30;99.90
23803;DHT22;12082;51.786;6.018;2023-02-18T10:04:05;9.30;99.90
23803;DHT22;12082;51.786;6.018;2023-02-18T10:06:35;9.30;99.90
23803;DHT22;12082;51.786;6.018;2023-02-18T10:09:24;9.30;99.90
23803;DHT22;12082;51.786;6.018;2023-02-18T10:12:23;9.30;99.90
23803;DHT22;12082;51.786;6.018;2023-02-18T10:14:52;9.30;99.90
23803;DHT22;12082;51.786;6.018;2023-02-18T10:17:20;9.30;99.90
23803;DHT22;12082;51.786;6.018;2023-02-18T10:19:48;9.40;99.90
23803;DHT22;12082;51.786;6.018;2023-02-18T10:22:15;9.30;99.90
23803;DHT22;12082;51.786;6.018;2023-02-18T10:27:33;9.40;99.90
23803;DHT22;12082;51.786;6.018;2023-02-18T10:30:20;9.40;99.90
23803;DHT22;12082;51.786;6.018;2023-02-18T10:32:46;9.40;99.90
23803;DHT22;12082;51.786;6.018;2023-02-18T10:41:23;9.50;99.90
23803;DHT22;12082;51.786;6.018;2023-02-18T10:44:09;9.50;99.90
23803;DHT22;12082;51.786;6.018;2023-02-18T10:47:04;9.50;99.90
23803;DHT22;12082;51.786;6.018;2023-02-18T10:51:57;9.60;99.90
23803;DHT22;12082;51.786;6.018;2023-02-18T10:54:26;9.60;99.90
23803;DHT22;12082;51.786;6.018;2023-02-18T10:57:17;9.50;99.90
23803;DHT22;12082;51.786;6.018;2023-02-18T10:59:57;9.50;99.90
23803;DHT22;12082;51.786;6.018;2023-02-18T11:02:26;9.60;99.90
23803;DHT22;12082;51.786;6.018;2023-02-18T11:04:54;9.60;99.90
23803;DHT22;12082;51.786;6.018;2023-02-18T11:07:24;9.60;99.90
23803;DHT22;12082;51.786;6.018;2023-02-18T11:09:55;9.60;99.90
23803;DHT22;12082;51.786;6.018;2023-02-18T11:12:24;9.60;99.90
23803;DHT22;12082;51.786;6.018;2023-02-18T11:15:17;9.60;99.90
23803;DHT22;12082;51.786;6.018;2023-02-18T11:17:45;9.60;99.90
23803;DHT22;12082;51.786;6.018;2023-02-18T11:20:27;9.50;99.90
23803;DHT22;12082;51.786;6.018;2023-02-18T11:23:13;9.50;99.90
23803;DHT22;12082;51.786;6.018;2023-02-18T11:25:40;9.60;99.90
23803;DHT22;12082;51.786;6.018;2023-02-18T11:30:44;9.50;99.90
23803;DHT22;12082;51.786;6.018;2023-02-18T11:35:49;9.60;99.90
23803;DHT22;12082;51.786;6.018;2023-02-18T11:38:56;9.60;99.90
23803;DHT22;12082;51.786;6.018;2023-02-18T11:41:17;9.60;99.90
23803;DHT22;12082;51.786;6.018;2023-02-18T11:43:49;9.60;99.90
23803;DHT22;12082;51.786;6.018;2023-02-18T11:46:23;9.60;99.90
23803;DHT22;12082;51.786;6.018;2023-02-18T11:48:50;9.60;99.90
23803;DHT22;12082;51.786;6.018;2023-02-18T11:51:34;9.60;99.90
23803;DHT22;12082;51.786;6.018;2023-02-18T11:54:08;9.70;99.90
23803;DHT22;12082;51.786;6.018;2023-02-18T11:57:02;9.70;99.90
23803;DHT22;12082;51.786;6.018;2023-02-18T11:59:32;9.80;99.90
23803;DHT22;12082;51.786;6.018;2023-02-18T12:04:51;9.90;99.90
23803;DHT22;12082;51.786;6.018;2023-02-18T12:07:23;10.00;99.90
23803;DHT22;12082;51.786;6.018;2023-02-18T12:09:53;10.10;99.90
23803;DHT22;12082;51.786;6.018;2023-02-18T12:12:30;10.10;99.90
23803;DHT22;12082;51.786;6.018;2023-02-18T12:14:58;10.20;99.90
23803;DHT22;12082;51.786;6.018;2023-02-18T12:17:58;10.10;99.90
23803;DHT22;12082;51.786;6.018;2023-02-18T12:31:27;10.40;99.90
23803;DHT22;12082;51.786;6.018;2023-02-18T12:42:34;10.50;99.90
23803;DHT22;12082;51.786;6.018;2023-02-18T13:08:32;10.70;99.90
23803;DHT22;12082;51.786;6.018;2023-02-18T13:13:38;10.80;99.90
23803;DHT22;12082;51.786;6.018;2023-02-18T13:16:10;10.90;99.90
23803;DHT22;12082;51.786;6.018;2023-02-18T13:21:15;10.90;99.90
23803;DHT22;12082;51.786;6.018;2023-02-18T13:24:03;11.10;99.90
23803;DHT22;12082;51.786;6.018;2023-02-18T13:26:31;10.90;99.90
23803;DHT22;12082;51.786;6.018;2023-02-18T13:31:56;11.00;99.90
23803;DHT22;12082;51.786;6.018;2023-02-18T13:34:31;11.20;99.90
23803;DHT22;12082;51.786;6.018;2023-02-18T20:06:19;10.30;99.90
23803;DHT22;12082;51.786;6.018;2023-02-18T20:08:48;10.30;99.90
23803;DHT22;12082;51.786;6.018;2023-02-18T20:33:40;10.10;99.90
23803;DHT22;12082;51.786;6.018;2023-02-18T20:38:37;10.40;99.90
23803;DHT22;12082;51.786;6.018;2023-02-18T20:41:07;10.30;99.90
23803;DHT22;12082;51.786;6.018;2023-02-18T20:46:04;10.30;99.90
23803;DHT22;12082;51.786;6.018;2023-02-18T20:53:33;10.30;99.90
23803;DHT22;12082;51.786;6.018;2023-02-18T20:55:59;10.30;99.90
23803;DHT22;12082;51.786;6.018;2023-02-18T20:58:25;10.20;99.90
23803;DHT22;12082;51.786;6.018;2023-02-18T21:00:58;10.60;99.90
23803;DHT22;12082;51.786;6.018;2023-02-18T21:08:22;10.20;99.90
23803;DHT22;12082;51.786;6.018;2023-02-18T21:10:48;10.60;99.90
23803;DHT22;12082;51.786;6.018;2023-02-18T21:13:15;10.10;99.90
23803;DHT22;12082;51.786;6.018;2023-02-18T21:15:41;10.30;99.90
23803;DHT22;12082;51.786;6.018;2023-02-18T21:18:07;10.60;99.90
23803;DHT22;12082;51.786;6.018;2023-02-18T21:55:06;10.10;99.90
23803;DHT22;12082;51.786;6.018;2023-02-18T21:59:59;10.20;99.90
23803;DHT22;12082;51.786;6.018;2023-02-18T22:02:29;10.30;99.90
23803;DHT22;12082;51.786;6.018;2023-02-18T22:07:25;10.20;99.90
23803;DHT22;12082;51.786;6.018;2023-02-18T22:09:54;10.20;99.90
23803;DHT22;12082;51.786;6.018;2023-02-18T22:12:23;10.10;99.90
23803;DHT22;12082;51.786;6.018;2023-02-18T22:19:49;10.10;99.90
23803;DHT22;12082;51.786;6.018;2023-02-18T22:24:41;10.30;99.90
23803;DHT22;12082;51.786;6.018;2023-02-18T22:27:07;10.20;99.90
23803;DHT22;12082;51.786;6.018;2023-02-18T22:29:35;10.20;99.90
23803;DHT22;12082;51.786;6.018;2023-02-18T22:32:03;10.20;99.90
23803;DHT22;12082;51.786;6.018;2023-02-18T22:34:28;10.10;99.90
23803;DHT22;12082;51.786;6.018;2023-02-18T22:41:46;10.20;99.90
23803;DHT22;12082;51.786;6.018;2023-02-18T22:58:57;10.10;99.90
23803;DHT22;12082;51.786;6.018;2023-02-18T23:03:57;10.30;99.90
23803;DHT22;12082;51.786;6.018;2023-02-18T23:06:23;10.50;99.90
23803;DHT22;12082;51.786;6.018;2023-02-18T23:08:52;9.90;99.90
23803;DHT22;12082;51.786;6.018;2023-02-18T23:11:19;10.20;99.90
23803;DHT22;12082;51.786;6.018;2023-02-18T23:13:45;10.10;99.90
23803;DHT22;12082;51.786;6.018;2023-02-18T23:19:00;10.00;99.90
23803;DHT22;12082;51.786;6.018;2023-02-18T23:21:25;10.10;99.90
23803;DHT22;12082;51.786;6.018;2023-02-18T23:23:53;10.20;99.90
23803;DHT22;12082;51.786;6.018;2023-02-18T23:26:22;10.10;99.90
23803;DHT22;12082;51.786;6.018;2023-02-18T23:28:50;10.70;99.90
23803;DHT22;12082;51.786;6.018;2023-02-18T23:31:24;10.10;99.90
23803;DHT22;12082;51.786;6.018;2023-02-18T23:33:57;10.10;99.90
23803;DHT22;12082;51.786;6.018;2023-02-18T23:36:28;10.80;99.90
23803;DHT22;12082;51.786;6.018;2023-02-18T23:38:56;10.10;99.90
23803;DHT22;12082;51.786;6.018;2023-02-18T23:41:22;10.00;99.90
23803;DHT22;12082;51.786;6.018;2023-02-18T23:43:49;10.00;99.90
23803;DHT22;12082;51.786;6.018;2023-02-18T23:46:19;10.10;99.90
23803;DHT22;12082;51.786;6.018;2023-02-18T23:48:45;9.90;99.90
23803;DHT22;12082;51.786;6.018;2023-02-18T23:53:40;10.10;99.90
23803;DHT22;12082;51.786;6.018;2023-02-18T23:56:13;10.10;99.90
23803;DHT22;12082;51.786;6.018;2023-02-18T23:58:40;10.00;99.90
